Station: Rabbit Flat  

  Atmospheric Gas Attenuation - ITU Rec 676-11   ----------------- dB/100km -----------------
Date Time Temp RH % AH g/m3 Dew Point Wind Direction Speed kph Gust kph Barometer mB Rainfall Since 9am 24GHz 47GHz 76GHz 122GHz 134GHz 241GHz
06/09 14:50 35.2 17 6.79 6.5 24 39 1011.5 0 14.9 18.3 25.3 66.1 57.9 198.7
06/09 14:40 34.3 17 6.48 5.8 26 39 1011.6 0 14.3 18.1 24.7 64.5 55.6 190.6
06/09 14:30 34.5 19 7.32 7.5 24 35 1011.9 0 16.0 19.1 27.1 70.8 63.4 218.1
06/09 14:20 35.2 18 7.19 7.3 24 35 1012 0 15.7 18.8 26.5 69.2 61.7 212.0
06/09 14:10 35.1 17 6.76 6.4 26 39 1012.1 0 14.9 18.3 25.3 66.0 57.7 198.0
06/09 14:00 35.1 17 6.76 6.4 20 39 1012.2 0 14.9 18.3 25.3 66.0 57.7 198.1
06/09 13:50 34.3 18 6.86 6.6 26 39 1012.3 0 15.1 18.6 25.8 67.4 59.2 203.3
06/09 13:40 35.2 18 7.19 7.3 20 32 1012.4 0 15.7 18.8 26.5 69.2 61.7 212.1
06/09 13:30 35.9 17 7.05 7 22 32 1012.6 0 15.4 18.5 25.9 67.6 59.9 205.8
06/09 13:20 34.7 17 6.62 6.1 22 26 1012.9 0 14.6 18.3 25.0 65.3 56.7 194.5
06/09 13:10 34.5 17 6.55 5.9 24 33 1013.1 0 14.5 18.2 24.9 64.9 56.2 192.7
06/09 13:00 35.1 17 6.76 6.4 22 35 1013.2 0 14.9 18.4 25.3 66.1 57.8 198.2
06/09 12:50 33.9 17 6.35 5.4 24 41 1013.4 0 14.1 18.1 24.5 63.9 54.7 187.5
06/09 12:40 33.9 17 6.35 5.4 22 32 1013.5 0 14.1 18.1 24.5 63.9 54.7 187.5
06/09 12:30 34.2 18 6.83 6.5 20 35 1013.7 0 15.0 18.6 25.8 67.4 59.1 202.7
06/09 12:20 33.9 19 7.09 7 20 37 1013.9 0 15.6 19.0 26.7 69.6 61.8 212.2
06/09 12:10 34.5 19 7.32 7.5 22 39 1014 0 16.0 19.2 27.1 70.9 63.5 218.5
06/09 12:00 33.9 18 6.72 6.3 20 33 1014.2 0 14.8 18.6 25.6 66.8 58.2 199.9
06/09 11:50 34.9 17 6.69 6.2 22 35 1014.4 0 14.7 18.3 25.2 65.8 57.3 196.6
06/09 11:40 34.6 18 6.97 6.8 22 39 1014.5 0 15.3 18.7 26.1 68.2 60.1 206.6
06/09 11:30 35.2 18 7.19 7.3 24 43 1014.7 0 15.7 18.9 26.6 69.4 61.8 212.5
06/09 11:20 34.9 19 7.48 7.9 20 35 1014.8 0 16.3 19.3 27.5 71.9 64.8 223.0
06/09 11:10 34.5 18 6.94 6.7 24 35 1014.9 0 15.3 18.7 26.1 68.1 60.0 205.9
06/09 11:00 35 19 7.52 7.9 24 35 1014.9 0 16.4 19.3 27.6 72.1 65.1 224.1
06/09 10:50 34.6 19 7.36 7.6 22 35 1015 0 16.1 19.2 27.3 71.2 63.9 219.8
06/09 10:40 34.3 22 8.39 9.5 20 32 1015 0 18.2 20.5 30.4 79.7 74.2 256.1
06/09 10:30 33.7 22 8.13 9 24 32 1015.1 0 17.7 20.3 29.8 78.2 72.2 248.8
06/09 10:20 33.5 22 8.04 8.9 20 32 1015.1 0 17.5 20.3 29.6 77.6 71.5 246.3
06/09 10:10 33.1 23 8.23 9.2 20 30 1015.1 0 17.9 20.6 30.4 79.5 73.7 254.1
06/09 10:00 31.9 24 8.06 8.8 24 35 1015.2 0 17.6 20.6 30.3 79.3 73.1 251.7
06/09 09:50 32.4 25 8.62 9.9 19 26 1015.2 0 18.8 21.2 31.8 83.4 78.3 270.3
06/09 09:40 31.6 26 8.59 9.8 17 26 1015.2 0 18.7 21.4 32.0 84.0 78.8 271.8
06/09 09:30 30.5 28 8.73 9.9 13 20 1015.3 0 19.1 21.8 32.9 86.3 81.3 280.7
06/09 09:20 29.5 30 8.86 10.1 15 20 1015.3 0 19.4 22.2 33.7 88.5 83.7 289.0
06/09 09:10 28.5 31 8.67 9.7 15 19 1015.3 0 19.0 22.2 33.5 87.9 82.7 285.2
06/09 09:00 27.8 33 8.88 10.1 13 20 1015.2 0 19.5 22.7 34.5 90.5 85.7 295.8
06/09 08:50 26.3 36 8.91 10 9 13 1015.2 0 19.6 23.1 35.2 92.4 87.7 302.4
06/09 08:40 24.2 42 9.24 10.5 7 9 1015.2 0 20.4 24.1 37.3 98.0 93.8 323.8
06/09 08:30 22 50 9.7 11.1 6 7 1015.1 0 21.5 25.3 40.0 105.2 102.1 352.3
06/09 08:20 21 49 8.98 9.9 2 7 1015.1 0 20.0 24.5 37.9 99.3 94.5 325.8
06/09 08:10 20.4 51 9.02 9.9 0 0 1015 0 20.2 24.8 38.3 100.5 95.7 329.9
06/09 08:00 19.4 54 9.01 9.9 7 9 1015 0 20.2 25.0 38.7 101.6 96.8 333.6
06/09 07:50 18.8 55 8.86 9.6 6 11 1014.9 0 19.9 24.9 38.4 100.9 95.7 329.5
06/09 07:40 18.3 56 8.76 9.4 6 9 1014.7 0 19.7 24.9 38.3 100.5 95.0 327.2
06/09 07:30 17.3 63 9.28 10.2 7 7 1014.6 0 20.9 26.0 40.8 107.1 102.9 354.6
06/09 07:20 17 62 8.97 9.7 6 7 1014.4 0 20.2 25.6 39.7 104.3 99.2 341.9
06/09 07:10 16.4 61 8.51 8.9 0 0 1014.2 0 19.3 25.0 38.2 100.2 94.1 323.8
06/09 07:00 16.1 62 8.5 8.8 6 7 1014.2 0 19.3 25.1 38.3 100.5 94.3 324.6
06/09 06:50 15.7 64 8.56 8.9 7 9 1014.1 0 19.4 25.3 38.7 101.6 95.6 328.9
06/09 06:40 15.7 64 8.56 8.9 11 17 1014.1 0 19.4 25.3 38.7 101.6 95.6 328.9
06/09 06:30 15.2 66 8.57 8.9 4 13 1014 0 19.5 25.5 39.0 102.4 96.3 331.4
06/09 06:20 15.3 67 8.75 9.2 0 0 1013.9 0 19.8 25.7 39.7 104.1 98.5 339.1
06/09 06:10 15.9 61 8.26 8.4 0 0 1013.7 0 18.8 24.8 37.5 98.2 91.5 314.5
06/09 06:00 15.9 61 8.26 8.4 6 9 1013.6 0 18.8 24.8 37.5 98.2 91.5 314.5
06/09 05:50 15.9 61 8.26 8.4 7 9 1013.6 0 18.8 24.8 37.5 98.2 91.5 314.5
06/09 05:40 16.2 60 8.27 8.4 0 0 1013.4 0 18.8 24.7 37.3 97.9 91.2 313.7
06/09 05:30 16.2 60 8.27 8.4 6 7 1013.5 0 18.8 24.7 37.4 98.0 91.2 313.7
06/09 05:20 16.3 62 8.6 9 7 11 1013.4 0 19.5 25.2 38.6 101.2 95.3 328.0
06/09 05:10 16.6 57 8.05 8.1 9 11 1013.4 0 18.3 24.3 36.3 95.2 88.0 302.5
06/09 05:00 16.5 58 8.14 8.2 7 9 1013.3 0 18.5 24.4 36.7 96.2 89.2 306.8
06/09 04:50 16.3 58 8.05 8 9 11 1013.3 0 18.3 24.3 36.5 95.6 88.3 303.6
06/09 04:40 16.2 58 8 7.9 9 11 1013.2 0 18.2 24.3 36.3 95.2 87.8 301.8
06/09 04:30 16.2 58 8 7.9 11 15 1013.1 0 18.2 24.3 36.3 95.2 87.8 301.8
06/09 04:20 16.1 57 7.81 7.6 4 11 1013.1 0 17.8 24.0 35.6 93.4 85.6 293.8
06/09 04:10 15.9 57 7.72 7.4 2 4 1013 0 17.6 23.9 35.4 92.7 84.7 290.6
06/09 04:00 15.8 62 8.35 8.5 2 7 1013 0 19.0 24.9 37.8 99.2 92.7 318.8
06/09 03:50 16.1 61 8.36 8.6 0 0 1013 0 19.0 24.9 37.7 98.9 92.5 318.0
06/09 03:40 16.6 55 7.77 7.5 7 9 1013.1 0 17.7 23.8 35.3 92.4 84.5 290.3
06/09 03:30 16.3 56 7.77 7.5 9 11 1013.1 0 17.7 23.9 35.4 92.7 84.8 291.4
06/09 03:20 16.6 56 7.91 7.8 2 7 1013.1 0 18.0 24.0 35.8 93.8 86.3 296.3
06/09 03:10 16.6 56 7.91 7.8 6 6 1013.2 0 18.0 24.0 35.8 93.8 86.3 296.4
06/09 03:00 16.5 56 7.86 7.7 6 7 1013.2 0 17.9 24.0 35.6 93.4 85.8 294.6
06/09 02:50 16 59 8.04 8 9 11 1013.2 0 18.3 24.4 36.6 95.8 88.6 304.3
06/09 02:40 16.1 59 8.09 8.1 7 9 1013.3 0 18.4 24.4 36.7 96.2 89.1 306.1
06/09 02:30 16.4 57 7.96 7.9 7 9 1013.4 0 18.1 24.2 36.1 94.5 87.1 299.3
06/09 02:20 16.7 56 7.96 7.9 7 9 1013.5 0 18.1 24.1 35.9 94.2 86.8 298.2
06/09 02:10 17.5 54 8.05 8.1 6 7 1013.5 0 18.2 24.0 35.9 94.2 87.0 299.1
06/09 02:00 17.6 53 7.95 7.9 6 7 1013.6 0 18.0 23.8 35.5 93.1 85.7 294.5
06/09 01:50 17.8 52 7.89 7.8 7 11 1013.7 0 17.9 23.7 35.2 92.2 84.8 291.2
06/09 01:40 18 51 7.83 7.7 7 9 1013.7 0 17.8 23.6 34.9 91.4 83.8 287.9
06/09 01:30 17.7 52 7.85 7.7 9 11 1013.8 0 17.8 23.7 35.1 92.0 84.4 289.9
06/09 01:20 17.8 53 8.04 8.1 9 11 1013.9 0 18.2 23.9 35.8 93.8 86.6 297.7
06/09 01:10 18.1 52 8.03 8.1 9 9 1014 0 18.2 23.8 35.6 93.3 86.2 296.2
06/09 01:00 18.5 49 7.75 7.6 7 9 1014.1 0 17.6 23.3 34.4 90.1 82.4 282.9
06/09 00:50 18.4 50 7.86 7.8 7 9 1014.2 0 17.8 23.5 34.9 91.3 83.8 287.9
05/09 23:13 21 41 7.51 7.3 6 7 1015 0 17.0 22.4 32.6 85.2 77.1 264.7
05/09 23:10 20.9 41 7.47 7.2 6 7 1015 0 16.9 22.4 32.5 84.9 76.7 263.4
05/09 23:00 20.8 43 7.79 7.8 6 7 1015.1 0 17.6 22.8 33.6 88.1 80.6 276.8
05/09 22:50 21.9 40 7.72 7.7 7 9 1015.1 0 17.4 22.5 32.9 86.2 78.7 270.3
05/09 22:40 22.1 38 7.42 7.1 4 7 1015.1 0 16.7 22.0 31.8 83.3 75.0 257.6
05/09 22:30 22.4 37 7.35 7 4 6 1015.2 0 16.6 21.8 31.5 82.3 74.0 253.9
05/09 22:20 22.8 36 7.31 7 7 11 1015.2 0 16.5 21.7 31.2 81.6 73.2 251.1
05/09 22:10 22.8 38 7.72 7.8 7 9 1015.2 0 17.3 22.3 32.6 85.3 77.8 267.3
05/09 22:00 23.2 37 7.69 7.7 7 7 1015.1 0 17.2 22.1 32.3 84.6 77.1 264.8
05/09 21:50 24.3 33 7.3 7 6 7 1015.1 0 16.4 21.3 30.6 80.0 71.7 246.2
05/09 21:40 24.8 32 7.28 7 7 11 1015.1 0 16.3 21.2 30.3 79.3 71.1 243.9
05/09 21:30 25.2 32 7.45 7.3 9 11 1015 0 16.7 21.3 30.8 80.4 72.5 249.2
05/09 21:20 25.3 33 7.73 7.9 11 11 1014.9 0 17.2 21.7 31.6 82.8 75.5 259.6
05/09 21:10 25.2 33 7.68 7.8 11 13 1014.8 0 17.1 21.6 31.5 82.5 75.0 258.0
05/09 21:00 25.3 33 7.73 7.9 11 13 1014.8 0 17.2 21.7 31.6 82.8 75.5 259.6

Last Refresh: 06-Sep-2026 15:04:13

Bureau of Meteorology